Onde está Pedrogão, Lisboa en Portugal?

 

Pedrogão está situado na região Lisboa em Portugal!

Buscar o nome de uma cidade:

Pedras Ásperas, Pedro de Freitas, Pedralbes Monastery, Pedreira, Pedra do Anta

Aqui você vai encontrar a localização de Pedrogão em um mapa.
Para ver como ele atualmente parece, abaixo estão algumas fotos da região, com webcams online.
Você também pode encontrar a distância para as principais cidades da região e de cidades do resto do Portugal.

7 lugares nomeadas Pedrogão na Portugal.

Cidades do mundo
Cidades em Portugal que também são encontradas em outros países do mundo.


Onde está Pedrogão no mapa?




Webcams perto Pedrogão

Benavente › South: Garrocheira - Airport.


Benavente › South: Garrocheira - Airport - Dia
Actual
Benavente › South: Garrocheira - Airport - Actual

Benavente › North-East: Santarém - AIrport, METAR: BENAV 180005Z 36004KT 17/14 Q1015.


Benavente › North-East: Santarém - AIrport, METAR: BENAV 180005Z 36004KT 17/14 Q1015 - Dia
Actual
Benavente › North-East: Santarém - AIrport, METAR: BENAV 180005Z 36004KT 17/14 Q1015 - Actual

Lisbon › North: Ponte Vasco da Gama.


Lisbon › North: Ponte Vasco da Gama - Dia
Actual
Lisbon › North: Ponte Vasco da Gama - Actual

Webcams provided by webcams.travel


Distâncias

Onde está Pedrogão em relação a outros lugares?

Top 10 cidades em Lisboa e distância de Pedrogão.

Cidade#Populaçãokmmilhas
Lisbon15177983924
Amadora21788563924
Queluz31033983924
Loures4662302918
Rio de Mouro5546954226
Odivelas6546233220
São Domingos de Rana7467174830
Cascais8364365333
Alcabideche9333155031
Póvoa de Santa Iria10289002314

Top 10 cidades em Portugal e distância de Pedrogão.

Cidade # Populaçãokmmilhas
Lisbon15177983924
Porto2249630237147
Amadora31788563924
Braga4121393282175
Setúbal51171095836
Coimbra610658013886
Queluz71033983924
Funchal8980411007626
Vila Nova de Gaia970810233145
Loures10662302918



Info

Estatística e Geografia

Portugal é composta de 15299 cidades em 20 regiões.

A região de Lisboa tem 1032 cidades.

Pedrogão é o número 727 na região Lisboa.

A cidade é o número 9900 na Portugal.

Onde está Pedrogão, Lisboa en Portugal?